createdAt,value
2018-09-21T00:01:09.977Z,28.30
2018-09-21T00:03:38.884Z,28.10
2018-09-21T00:06:07.727Z,28.20
2018-09-21T00:08:36.574Z,28.30
2018-09-21T00:11:05.484Z,28.30
2018-09-21T00:13:34.328Z,28.30
2018-09-21T00:16:03.184Z,28.40
2018-09-21T00:18:32.040Z,28.30
2018-09-21T00:21:00.951Z,28.30
2018-09-21T00:23:29.840Z,28.10
2018-09-21T00:25:58.764Z,28.00
2018-09-21T00:28:27.623Z,27.90
2018-09-21T00:30:56.533Z,27.70
2018-09-21T00:33:25.416Z,27.70
2018-09-21T00:35:54.329Z,27.70
2018-09-21T00:38:23.208Z,27.60
2018-09-21T00:40:52.193Z,27.80
2018-09-21T00:43:21.024Z,27.90
2018-09-21T00:45:49.881Z,27.90
2018-09-21T00:48:18.715Z,28.00
2018-09-21T00:50:47.588Z,27.80
2018-09-21T00:53:16.461Z,28.00
2018-09-21T00:55:45.311Z,28.10
2018-09-21T00:58:14.192Z,28.20
2018-09-21T01:00:43.088Z,28.80
2018-09-21T01:03:11.982Z,29.30
2018-09-21T01:05:40.857Z,29.50
2018-09-21T01:08:09.745Z,29.50
2018-09-21T01:10:38.608Z,29.20
2018-09-21T01:13:07.492Z,28.60
2018-09-21T01:15:36.382Z,28.60
2018-09-21T01:18:05.235Z,28.40
2018-09-21T01:20:34.088Z,28.30
2018-09-21T01:23:03.047Z,28.10
2018-09-21T01:25:31.876Z,28.10
2018-09-21T01:28:00.688Z,28.10
2018-09-21T01:30:29.592Z,28.00
2018-09-21T01:32:58.484Z,27.90
2018-09-21T01:35:27.397Z,27.80
2018-09-21T01:37:56.272Z,28.00
2018-09-21T01:40:25.128Z,28.20
2018-09-21T01:42:53.971Z,28.00
2018-09-21T01:45:22.885Z,28.30
2018-09-21T01:47:51.909Z,28.00
2018-09-21T01:50:20.833Z,28.30
2018-09-21T01:52:49.643Z,28.30
2018-09-21T01:55:18.554Z,28.30
2018-09-21T01:57:47.458Z,28.20
2018-09-21T02:00:16.309Z,28.50
2018-09-21T02:02:45.181Z,28.60
2018-09-21T02:05:14.014Z,28.70
2018-09-21T02:07:42.827Z,29.40
2018-09-21T02:10:11.704Z,29.00
2018-09-21T02:12:40.618Z,29.20
2018-09-21T02:15:09.506Z,28.90
2018-09-21T02:17:38.431Z,28.90
2018-09-21T02:20:07.307Z,28.90
2018-09-21T02:22:36.127Z,28.60
2018-09-21T02:25:05.125Z,28.50
2018-09-21T02:27:33.989Z,29.00
2018-09-21T02:30:02.908Z,29.00
2018-09-21T02:32:31.721Z,28.80
2018-09-21T02:35:00.568Z,29.10
2018-09-21T02:37:29.411Z,29.00
2018-09-21T02:39:58.237Z,29.10
2018-09-21T02:42:27.054Z,29.20
2018-09-21T02:44:55.915Z,29.30
2018-09-21T02:47:24.832Z,29.40
2018-09-21T02:49:53.689Z,29.40
2018-09-21T02:52:22.527Z,29.40
2018-09-21T02:54:51.385Z,29.40
2018-09-21T02:57:20.280Z,29.60
2018-09-21T02:59:49.140Z,30.10
2018-09-21T03:02:17.984Z,30.30
2018-09-21T03:04:53.467Z,30.40
2018-09-21T03:07:22.984Z,30.40
2018-09-21T03:09:51.848Z,30.90
2018-09-21T03:12:20.737Z,30.10
2018-09-21T03:14:49.600Z,30.20
2018-09-21T03:17:18.511Z,30.20
2018-09-21T03:19:47.388Z,30.40
2018-09-21T03:22:16.353Z,30.20
2018-09-21T03:24:45.239Z,30.40
2018-09-21T03:27:14.080Z,30.30
2018-09-21T03:29:42.940Z,30.20
2018-09-21T03:32:11.837Z,30.40
2018-09-21T03:34:40.658Z,30.80
2018-09-21T03:37:09.529Z,30.80
2018-09-21T03:39:38.374Z,31.80
2018-09-21T03:42:07.235Z,31.10
2018-09-21T03:44:36.120Z,31.00
2018-09-21T03:47:05.025Z,31.00
2018-09-21T03:49:33.901Z,31.00
2018-09-21T03:52:02.744Z,31.10
2018-09-21T03:54:31.605Z,31.00
2018-09-21T03:57:00.472Z,30.80
2018-09-21T03:59:29.354Z,31.00
2018-09-21T04:01:58.252Z,31.10
2018-09-21T04:04:27.095Z,31.10
2018-09-21T04:06:56.001Z,31.30
2018-09-21T04:09:24.903Z,31.40
2018-09-21T04:11:53.724Z,31.60
2018-09-21T04:14:22.602Z,32.00
2018-09-21T04:16:51.447Z,31.20
2018-09-21T04:19:20.308Z,31.10
2018-09-21T04:21:49.350Z,31.10
2018-09-21T04:24:18.235Z,31.30
2018-09-21T04:26:47.125Z,31.60
2018-09-21T04:29:16.005Z,31.40
2018-09-21T04:31:44.943Z,31.30
2018-09-21T04:34:13.792Z,31.20
2018-09-21T04:36:42.652Z,31.30
2018-09-21T04:39:12.707Z,31.30
2018-09-21T04:41:41.567Z,31.40
2018-09-21T04:44:10.493Z,31.30
2018-09-21T04:46:39.325Z,31.40
2018-09-21T04:49:08.375Z,31.60
2018-09-21T04:51:37.301Z,31.60
2018-09-21T04:54:06.209Z,31.60
2018-09-21T04:56:35.031Z,31.60
2018-09-21T04:59:03.936Z,31.80
2018-09-21T05:01:32.755Z,31.50
2018-09-21T05:04:01.628Z,31.40
2018-09-21T05:06:30.481Z,31.10
2018-09-21T05:08:59.673Z,30.80
2018-09-21T05:11:28.564Z,30.60
2018-09-21T05:13:57.532Z,30.50
2018-09-21T05:16:26.412Z,30.20
2018-09-21T05:18:55.276Z,30.10
2018-09-21T05:21:24.964Z,30.10
2018-09-21T05:23:53.832Z,30.00
2018-09-21T05:26:22.772Z,29.70
2018-09-21T05:28:51.640Z,29.10
2018-09-21T05:31:20.491Z,28.70
2018-09-21T05:33:49.360Z,28.40
2018-09-21T05:36:18.206Z,27.70
2018-09-21T05:38:47.149Z,27.30
2018-09-21T05:41:16.051Z,27.10
2018-09-21T05:43:44.879Z,26.70
2018-09-21T05:46:13.785Z,26.50
2018-09-21T05:48:42.716Z,26.10
2018-09-21T05:51:11.534Z,25.30
2018-09-21T05:53:40.459Z,25.10
2018-09-21T05:56:09.395Z,24.80
2018-09-21T05:58:38.243Z,24.20
2018-09-21T06:01:07.377Z,24.20
2018-09-21T06:03:36.315Z,24.30
2018-09-21T06:06:05.205Z,24.30
2018-09-21T06:08:34.081Z,24.50
2018-09-21T06:11:02.942Z,24.10
2018-09-21T06:13:31.870Z,24.00
2018-09-21T06:16:00.687Z,23.60
2018-09-21T06:18:29.598Z,23.00
2018-09-21T06:20:58.591Z,22.40
2018-09-21T06:23:27.687Z,22.30
2018-09-21T06:25:56.552Z,21.60
2018-09-21T06:28:25.770Z,21.30
2018-09-21T06:30:54.780Z,20.70
2018-09-21T06:33:23.633Z,19.80
2018-09-21T06:35:52.513Z,19.40
2018-09-21T06:38:21.446Z,19.10
2018-09-21T06:40:50.318Z,18.50
2018-09-21T06:43:19.192Z,18.10
2018-09-21T06:45:48.095Z,18.30
2018-09-21T06:48:16.979Z,17.90
2018-09-21T06:50:45.827Z,17.60
2018-09-21T06:53:14.735Z,17.70
2018-09-21T06:55:43.593Z,17.10
2018-09-21T06:58:12.428Z,16.90
2018-09-21T07:00:41.329Z,15.90
2018-09-21T07:03:10.205Z,15.60
2018-09-21T07:05:39.064Z,15.10
2018-09-21T07:08:07.882Z,14.90
2018-09-21T07:10:36.759Z,14.70
2018-09-21T07:13:05.737Z,15.90
2018-09-21T07:15:34.595Z,15.90
2018-09-21T07:18:03.453Z,16.00
2018-09-21T07:20:32.387Z,15.80
2018-09-21T07:23:01.287Z,15.80
2018-09-21T07:25:30.152Z,16.00
2018-09-21T07:27:59.077Z,15.90
2018-09-21T07:30:27.956Z,15.60
2018-09-21T07:32:56.880Z,15.20
2018-09-21T07:35:25.756Z,14.90
2018-09-21T07:37:54.604Z,14.60
2018-09-21T07:40:23.461Z,14.60
2018-09-21T07:42:52.301Z,14.70
2018-09-21T07:45:21.176Z,14.40
2018-09-21T07:47:50.059Z,14.30
2018-09-21T07:50:18.891Z,14.60
2018-09-21T07:52:47.788Z,14.60
2018-09-21T07:55:16.636Z,13.90
2018-09-21T07:57:45.489Z,13.90
2018-09-21T08:00:14.375Z,14.40
2018-09-21T08:02:43.218Z,14.00
2018-09-21T08:05:12.085Z,12.80
2018-09-21T08:07:40.908Z,12.70
2018-09-21T08:10:09.799Z,12.20
2018-09-21T08:12:38.621Z,11.90
2018-09-21T08:15:07.489Z,11.10
2018-09-21T08:17:36.431Z,10.10
2018-09-21T08:20:05.338Z,9.90
2018-09-21T08:22:34.221Z,9.90
2018-09-21T08:25:03.164Z,9.40
2018-09-21T08:27:32.041Z,9.20
2018-09-21T08:30:00.929Z,8.70
2018-09-21T08:32:29.864Z,8.10
2018-09-21T08:34:58.733Z,8.20
2018-09-21T08:37:27.662Z,8.30
2018-09-21T08:39:56.541Z,7.50
2018-09-21T08:42:25.411Z,7.30
2018-09-21T08:44:54.292Z,6.80
2018-09-21T08:47:23.135Z,6.20
2018-09-21T08:49:51.971Z,6.20
2018-09-21T08:52:20.849Z,6.10
2018-09-21T08:54:49.924Z,5.80
2018-09-21T08:57:18.853Z,6.10
2018-09-21T08:59:47.727Z,6.00
2018-09-21T09:02:16.568Z,5.30
2018-09-21T09:04:45.519Z,5.20
2018-09-21T09:07:14.417Z,4.50
2018-09-21T09:09:43.264Z,4.80
2018-09-21T09:12:12.152Z,4.50
2018-09-21T09:14:41.069Z,4.50
2018-09-21T09:17:09.981Z,4.50
2018-09-21T09:19:38.916Z,4.20
2018-09-21T09:22:07.912Z,4.00
2018-09-21T09:24:36.813Z,3.60
2018-09-21T09:27:05.674Z,3.20
2018-09-21T09:29:34.569Z,3.00
2018-09-21T09:32:03.500Z,2.50
2018-09-21T09:34:32.405Z,2.40
2018-09-21T09:37:01.264Z,2.30
2018-09-21T09:39:30.065Z,2.10
2018-09-21T09:41:58.899Z,1.90
2018-09-21T09:44:27.813Z,1.60
2018-09-21T09:46:56.660Z,1.60
2018-09-21T09:49:25.510Z,1.50
2018-09-21T09:51:54.401Z,1.00
2018-09-21T09:54:23.254Z,1.00
2018-09-21T09:56:52.079Z,1.00
2018-09-21T09:59:20.948Z,1.00
2018-09-21T10:01:49.854Z,1.00
2018-09-21T10:04:18.667Z,1.00
2018-09-21T10:06:47.548Z,1.00
2018-09-21T10:09:16.404Z,1.00
2018-09-21T10:11:45.305Z,1.00
2018-09-21T10:14:14.168Z,1.00
2018-09-21T10:16:43.008Z,1.00
2018-09-21T10:19:11.839Z,1.00
2018-09-21T10:24:09.386Z,1.00
2018-09-21T10:26:38.219Z,1.00
2018-09-21T10:29:07.070Z,1.00
2018-09-21T10:31:36.011Z,1.00
2018-09-21T10:34:04.862Z,1.00
2018-09-21T10:36:33.724Z,1.00
2018-09-21T10:39:02.599Z,1.00
2018-09-21T10:41:31.430Z,1.00
2018-09-21T10:44:00.274Z,1.00
2018-09-21T10:46:29.152Z,1.00
2018-09-21T10:48:58.041Z,1.00
2018-09-21T10:51:26.879Z,1.00
2018-09-21T10:53:55.731Z,1.00
2018-09-21T10:56:24.592Z,1.00
2018-09-21T10:58:53.466Z,1.00
2018-09-21T11:01:22.328Z,1.00
2018-09-21T11:03:51.130Z,1.00
2018-09-21T11:06:20.042Z,1.00
2018-09-21T11:08:48.878Z,1.00
2018-09-21T11:11:17.718Z,1.00
2018-09-21T11:13:46.640Z,1.00
2018-09-21T11:16:15.691Z,1.00
2018-09-21T11:18:44.572Z,1.00
2018-09-21T11:21:13.463Z,1.00
2018-09-21T11:23:42.348Z,1.00
2018-09-21T11:26:11.225Z,1.00
2018-09-21T11:28:40.070Z,1.00
2018-09-21T11:31:08.968Z,1.00
2018-09-21T11:33:37.819Z,1.00
2018-09-21T11:36:06.692Z,1.00
2018-09-21T11:38:35.589Z,1.00
2018-09-21T11:41:04.464Z,1.00
2018-09-21T11:43:33.314Z,1.00
2018-09-21T11:46:02.208Z,1.00
2018-09-21T11:48:31.102Z,1.00
2018-09-21T11:51:00.001Z,1.00
2018-09-21T11:53:28.852Z,1.00
2018-09-21T11:55:57.691Z,1.00
2018-09-21T11:58:26.573Z,1.00
2018-09-21T12:00:55.465Z,1.00
2018-09-21T12:03:24.271Z,1.00
2018-09-21T12:05:53.177Z,1.00
2018-09-21T12:08:22.041Z,1.00
2018-09-21T12:10:50.916Z,1.00
2018-09-21T12:13:19.805Z,1.00
2018-09-21T12:15:48.728Z,1.00
2018-09-21T12:18:17.658Z,1.00
2018-09-21T12:20:46.508Z,1.00
2018-09-21T12:23:15.339Z,1.00
2018-09-21T12:25:44.182Z,1.00
2018-09-21T12:28:13.076Z,1.00
2018-09-21T12:30:42.003Z,1.00
2018-09-21T12:33:10.825Z,1.00
2018-09-21T12:35:39.677Z,1.00
2018-09-21T12:38:08.948Z,1.00
2018-09-21T12:40:37.826Z,1.00
2018-09-21T12:43:06.988Z,1.00
2018-09-21T12:45:36.010Z,1.00
2018-09-21T12:48:04.965Z,1.00
2018-09-21T12:50:33.841Z,1.00
2018-09-21T12:53:02.650Z,1.00
2018-09-21T12:55:31.474Z,1.00
2018-09-21T12:58:00.435Z,1.00
2018-09-21T13:00:34.673Z,1.00
2018-09-21T13:03:03.557Z,1.00
2018-09-21T13:05:32.438Z,1.00
2018-09-21T13:08:01.323Z,1.00
2018-09-21T13:10:30.188Z,1.00
2018-09-21T13:12:59.043Z,1.00
2018-09-21T13:15:27.926Z,1.00
2018-09-21T13:17:56.771Z,1.00
2018-09-21T13:20:25.644Z,1.00
2018-09-21T13:22:54.457Z,1.00
2018-09-21T13:25:23.362Z,1.00
2018-09-21T13:27:52.237Z,1.00
2018-09-21T13:30:21.113Z,1.00
2018-09-21T13:32:49.979Z,1.00
2018-09-21T13:35:18.802Z,1.00
2018-09-21T13:37:47.779Z,1.00
2018-09-21T13:40:16.719Z,1.00
2018-09-21T13:42:45.597Z,1.00
2018-09-21T13:45:14.427Z,1.00
2018-09-21T13:47:43.292Z,1.00
2018-09-21T13:50:12.164Z,1.00
2018-09-21T13:52:41.045Z,1.00
2018-09-21T13:55:09.922Z,1.00
2018-09-21T13:57:38.772Z,1.00
2018-09-21T14:00:08.446Z,1.00
2018-09-21T14:02:37.304Z,1.00
2018-09-21T14:05:06.535Z,1.00
2018-09-21T14:07:35.413Z,1.00
2018-09-21T14:10:04.288Z,1.00
2018-09-21T14:12:33.193Z,1.00
2018-09-21T14:15:02.085Z,1.00
2018-09-21T14:17:31.113Z,1.00
2018-09-21T14:19:59.940Z,1.00
2018-09-21T14:22:28.766Z,1.00
2018-09-21T14:24:57.649Z,1.00
2018-09-21T14:27:26.569Z,1.00
2018-09-21T14:29:55.421Z,1.00
2018-09-21T14:32:24.267Z,1.00
2018-09-21T14:34:53.158Z,1.00
2018-09-21T14:37:23.140Z,1.00
2018-09-21T14:39:52.004Z,1.00
2018-09-21T14:42:20.897Z,1.00
2018-09-21T14:44:49.808Z,1.00
2018-09-21T14:47:18.648Z,1.00
2018-09-21T14:49:47.514Z,1.00
2018-09-21T14:52:16.684Z,1.50
2018-09-21T14:54:45.564Z,1.00
2018-09-21T14:57:14.556Z,8.60
2018-09-21T14:59:43.459Z,17.90
2018-09-21T15:02:12.271Z,26.40
2018-09-21T15:04:41.096Z,32.80
2018-09-21T15:07:09.936Z,37.20
2018-09-21T15:09:38.824Z,40.90
2018-09-21T15:12:07.722Z,42.70
2018-09-21T15:14:36.555Z,44.30
2018-09-21T15:17:05.517Z,51.60
2018-09-21T15:19:34.384Z,56.30
2018-09-21T15:22:03.263Z,62.60
2018-09-21T15:24:32.157Z,73.10
2018-09-21T15:27:01.060Z,76.70
2018-09-21T15:29:29.898Z,79.40
2018-09-21T15:31:58.729Z,79.50
2018-09-21T15:34:27.587Z,79.10
2018-09-21T15:36:56.407Z,82.10
2018-09-21T15:39:25.241Z,81.40
2018-09-21T15:41:54.126Z,80.40
2018-09-21T15:44:22.995Z,81.50
2018-09-21T15:46:51.951Z,81.20
2018-09-21T15:49:20.808Z,80.40
2018-09-21T15:51:49.699Z,80.80
2018-09-21T15:54:18.546Z,80.50
2018-09-21T15:56:47.450Z,82.20
2018-09-21T15:59:16.336Z,82.80
2018-09-21T16:01:45.222Z,83.10
2018-09-21T16:04:14.094Z,84.20
2018-09-21T16:06:43.041Z,80.40
2018-09-21T16:09:11.933Z,76.20
2018-09-21T16:11:40.813Z,74.90
2018-09-21T16:14:09.722Z,74.70
2018-09-21T16:16:38.740Z,75.30
2018-09-21T16:19:07.739Z,72.30
2018-09-21T16:21:36.629Z,73.90
2018-09-21T16:24:05.533Z,73.60
2018-09-21T16:26:34.374Z,73.10
2018-09-21T16:29:03.334Z,75.70
2018-09-21T16:31:32.224Z,74.30
2018-09-21T16:34:01.068Z,75.80
2018-09-21T16:36:29.882Z,71.00
2018-09-21T16:38:58.841Z,76.30
2018-09-21T16:41:27.742Z,76.40
2018-09-21T16:43:56.816Z,76.80
2018-09-21T16:46:25.656Z,72.10
2018-09-21T16:48:54.495Z,77.50
2018-09-21T16:51:23.421Z,76.70
2018-09-21T16:53:52.221Z,76.60
2018-09-21T16:56:21.031Z,76.90
2018-09-21T16:58:49.888Z,76.20
2018-09-21T17:01:18.998Z,76.50
2018-09-21T17:03:47.840Z,79.00
2018-09-21T17:06:16.832Z,74.50
2018-09-21T17:08:45.691Z,76.80
2018-09-21T17:11:14.694Z,77.30
2018-09-21T17:13:43.621Z,79.80
2018-09-21T17:16:12.501Z,79.70
2018-09-21T17:18:41.394Z,76.00
2018-09-21T17:21:10.339Z,78.10
2018-09-21T17:23:39.237Z,76.50
2018-09-21T17:26:08.148Z,75.80
2018-09-21T17:28:37.093Z,75.60
2018-09-21T17:31:05.970Z,75.30
2018-09-21T17:33:34.809Z,76.90
2018-09-21T17:36:03.659Z,77.30
2018-09-21T17:38:32.548Z,77.50
2018-09-21T17:41:01.416Z,78.40
2018-09-21T17:43:30.280Z,79.50
2018-09-21T17:45:59.202Z,79.20
2018-09-21T17:48:28.023Z,79.90
2018-09-21T17:50:56.867Z,78.50
2018-09-21T17:53:25.744Z,78.90
2018-09-21T17:55:54.607Z,78.80
2018-09-21T17:58:23.497Z,79.90
2018-09-21T18:00:52.351Z,79.90
2018-09-21T18:03:21.175Z,79.90
2018-09-21T18:05:50.280Z,79.30
2018-09-21T18:08:19.307Z,81.70
2018-09-21T18:10:48.171Z,82.00
2018-09-21T18:13:17.035Z,82.20
2018-09-21T18:15:45.967Z,83.10
2018-09-21T18:18:14.889Z,83.80
2018-09-21T18:20:43.813Z,85.50
2018-09-21T18:23:12.796Z,84.80
2018-09-21T18:25:41.690Z,85.70
2018-09-21T18:28:10.585Z,85.60
2018-09-21T18:30:39.516Z,86.30
2018-09-21T18:33:08.347Z,85.60
2018-09-21T18:35:37.477Z,85.40
2018-09-21T18:38:06.363Z,86.50
2018-09-21T18:40:35.282Z,86.30
2018-09-21T18:43:04.135Z,88.00
2018-09-21T18:45:32.951Z,88.20
2018-09-21T18:48:01.897Z,86.90
2018-09-21T18:50:30.904Z,87.30
2018-09-21T18:52:59.693Z,87.10
2018-09-21T18:55:28.541Z,87.40
2018-09-21T18:57:57.363Z,87.30
2018-09-21T19:00:26.224Z,87.70
2018-09-21T19:02:55.089Z,87.20
2018-09-21T19:05:24.010Z,86.70
2018-09-21T19:07:52.864Z,86.10
2018-09-21T19:10:21.674Z,86.80
2018-09-21T19:12:50.491Z,85.50
2018-09-21T19:15:19.384Z,86.50
2018-09-21T19:17:48.429Z,86.40
2018-09-21T19:20:17.377Z,86.40
2018-09-21T19:22:46.248Z,85.90
2018-09-21T19:25:15.129Z,86.40
2018-09-21T19:27:44.004Z,84.40
2018-09-21T19:30:12.855Z,85.10
2018-09-21T19:32:41.775Z,84.90
2018-09-21T19:35:10.631Z,85.00
2018-09-21T19:37:39.463Z,83.80
2018-09-21T19:40:08.321Z,83.50
2018-09-21T19:42:37.344Z,84.00
2018-09-21T19:45:06.978Z,83.20
2018-09-21T19:47:35.776Z,83.30
2018-09-21T19:50:05.301Z,83.80
2018-09-21T19:52:34.176Z,82.60
2018-09-21T19:55:03.203Z,83.40
2018-09-21T19:57:32.010Z,83.20
2018-09-21T20:00:00.906Z,82.50
2018-09-21T20:02:29.812Z,82.10
2018-09-21T20:04:58.767Z,81.70
2018-09-21T20:07:27.587Z,82.60
2018-09-21T20:09:56.423Z,81.10
2018-09-21T20:12:25.716Z,80.60
2018-09-21T20:14:54.564Z,80.90
2018-09-21T20:17:23.446Z,79.50
2018-09-21T20:19:52.344Z,81.00
2018-09-21T20:22:21.199Z,79.70
2018-09-21T20:24:50.193Z,80.80
2018-09-21T20:27:19.133Z,79.50
2018-09-21T20:29:48.060Z,79.50
2018-09-21T20:32:22.380Z,79.40
2018-09-21T20:34:51.300Z,80.40
2018-09-21T20:37:20.181Z,78.70
2018-09-21T20:39:49.016Z,79.30
2018-09-21T20:42:17.862Z,79.30
2018-09-21T20:44:46.793Z,79.30
2018-09-21T20:47:15.720Z,78.30
2018-09-21T20:49:44.670Z,78.40
2018-09-21T20:52:13.591Z,78.30
2018-09-21T20:54:42.468Z,77.80
2018-09-21T20:57:11.350Z,75.90
2018-09-21T20:59:40.231Z,75.30
2018-09-21T21:02:09.109Z,76.40
2018-09-21T21:04:38.012Z,74.70
2018-09-21T21:07:06.920Z,73.90
2018-09-21T21:09:35.822Z,74.30
2018-09-21T21:12:04.695Z,74.00
2018-09-21T21:14:33.549Z,74.10
2018-09-21T21:17:02.394Z,73.00
2018-09-21T21:19:31.242Z,72.70
2018-09-21T21:22:00.164Z,70.90
2018-09-21T21:24:29.063Z,70.50
2018-09-21T21:26:57.974Z,71.30
2018-09-21T21:29:26.864Z,68.50
2018-09-21T21:31:55.703Z,67.60
2018-09-21T21:34:24.568Z,68.40
2018-09-21T21:36:53.601Z,69.40
2018-09-21T21:39:22.452Z,67.10
2018-09-21T21:41:51.290Z,67.50
2018-09-21T21:44:20.106Z,67.00
2018-09-21T21:46:49.086Z,66.40
2018-09-21T21:49:17.999Z,64.20
2018-09-21T21:51:46.827Z,64.10
2018-09-21T21:54:15.750Z,63.20
2018-09-21T21:56:44.644Z,63.00
2018-09-21T21:59:13.605Z,61.30
2018-09-21T22:01:46.811Z,61.50
2018-09-21T22:04:17.057Z,60.60
2018-09-21T22:06:45.919Z,59.80
2018-09-21T22:09:14.842Z,59.20
2018-09-21T22:11:49.317Z,56.70
2018-09-21T22:14:18.174Z,56.30
2018-09-21T22:16:47.073Z,55.80
2018-09-21T22:19:15.939Z,56.90
2018-09-21T22:21:44.808Z,57.00
2018-09-21T22:24:13.700Z,56.70
2018-09-21T22:26:42.618Z,57.10
2018-09-21T22:29:11.547Z,57.20
2018-09-21T22:31:40.481Z,54.30
2018-09-21T22:34:09.388Z,52.10
2018-09-21T22:36:38.251Z,51.10
2018-09-21T22:39:08.952Z,48.80
2018-09-21T22:41:37.824Z,47.90
2018-09-21T22:44:06.722Z,47.20
2018-09-21T22:46:35.596Z,46.50
2018-09-21T22:49:07.659Z,46.70
2018-09-21T22:51:36.482Z,46.10
2018-09-21T22:54:05.360Z,45.40
2018-09-21T22:56:34.232Z,47.00
2018-09-21T22:59:03.089Z,46.80
2018-09-21T23:01:31.999Z,47.40
2018-09-21T23:04:00.918Z,47.80
2018-09-21T23:06:29.759Z,47.40
2018-09-21T23:08:58.671Z,47.20
2018-09-21T23:11:27.670Z,48.00
2018-09-21T23:13:56.540Z,46.50
2018-09-21T23:16:25.416Z,47.60
2018-09-21T23:18:54.307Z,47.70
2018-09-21T23:21:23.158Z,47.40
2018-09-21T23:23:52.050Z,47.60
2018-09-21T23:26:21.006Z,44.80
2018-09-21T23:28:49.847Z,45.00
2018-09-21T23:31:18.707Z,44.30
2018-09-21T23:33:47.583Z,44.00
2018-09-21T23:36:16.472Z,43.20
2018-09-21T23:38:45.378Z,42.80
2018-09-21T23:41:14.423Z,40.90
2018-09-21T23:43:43.345Z,41.50
2018-09-21T23:46:12.228Z,39.60
2018-09-21T23:48:41.090Z,38.10
2018-09-21T23:51:10.783Z,38.70
2018-09-21T23:53:39.840Z,38.90
2018-09-21T23:56:09.405Z,38.60
2018-09-21T23:58:38.631Z,39.40
